• Join FlightAware (Why Join?)
  • Login
  • US Flag 
03:03AM EDT


 

Airport Tracker/Info


-or-


 

Live Flight TrackerFlight Track Log ✈ EJA695 ✈ 09-Jul-2013 ✈ KSBA - KSFO

Flight Track Log - Related Links

Times and Time Zones

All times are in EDT time to prevent confusion due to time zone crossing. See the EJA695 flight status page for this flight to view local times or setup timezone preferences in your user account.

Time Position Orientation Groundspeed Altitude Reporting Facility
EDT Latitude Longitude Course Direction KTS MPH feet Rate Location/Type
06:24PM 34.4283 -119.8608 270° West 166 191 800  Level Los Angeles Center
06:24PM 34.4283 -119.8856 270° West 171 197 1,900 2,100 Climbing Los Angeles Center
06:25PM 34.4258 -119.9583 268° West 207 238 4,200 2,040 Climbing Los Angeles Center
06:26PM 34.4242 -120.0500 269° West 260 299 6,200 2,220 Climbing Los Angeles Center
06:27PM 34.4594 -120.1428 295° West 283 326 8,900 2,220 Climbing Los Angeles Center
06:29PM 34.5281 -120.1986 326° Northwest 293 337 10,900 1,920 Climbing Los Angeles Center
06:30PM 34.5969 -120.2564 325° Northwest 308 354 12,900 2,040 Climbing Los Angeles Center
06:31PM 34.6825 -120.3294 325° Northwest 316 364 15,200 1,800 Climbing Los Angeles Center
06:32PM 34.7575 -120.3942 325° Northwest 332 382 16,700 1,680 Climbing Los Angeles Center
06:33PM 34.8397 -120.4658 324° Northwest 344 396 18,700 1,620 Climbing Los Angeles Center
06:34PM 34.9128 -120.5289 325° Northwest 346 398 20,100 1,320 Climbing Los Angeles Center
06:35PM 34.9947 -120.5997 325° Northwest 360 414 21,500 1,440 Climbing Los Angeles Center
06:36PM 35.0961 -120.6861 325° Northwest 371 427 23,200 1,200 Climbing Los Angeles Center
06:37PM 35.1803 -120.7611 324° Northwest 375 432 24,000 360 Climbing Los Angeles Center
06:38PM 35.2719 -120.8394 325° Northwest 400 460 24,000  Level Los Angeles Center
06:39PM 35.3708 -120.9150 328° Northwest 416 479 24,000  Level Los Angeles Center
06:40PM 35.4694 -120.9878 329° Northwest 414 476 24,000  Level Los Angeles Center
06:41PM 35.5672 -121.0614 329° Northwest 413 475 24,000  Level Los Angeles Center
06:42PM 35.6372 -121.1169 327° Northwest 413 475 24,000  Level Oakland Center
06:43PM 35.7350 -121.1911 328° Northwest 414 476 24,000  Level Oakland Center
06:44PM 35.8336 -121.2650 329° Northwest 415 478 24,000  Level Oakland Center
06:45PM 35.9314 -121.3417 328° Northwest 416 479 24,000  Level Oakland Center
06:46PM 36.0489 -121.4306 329° Northwest 415 478 24,000  Level Oakland Center
06:47PM 36.1469 -121.5056 328° Northwest 415 478 24,000  Level Oakland Center
06:48PM 36.2489 -121.5831 328° Northwest 418 481 24,000  Level Oakland Center
06:49PM 36.3425 -121.6556 328° Northwest 413 475 24,000 -60 Level Oakland Center
06:50PM 36.4400 -121.7308 328° Northwest 416 479 23,900 -1,200 Descending Oakland Center
06:51PM 36.5458 -121.8142 328° Northwest 426 490 21,600 -2,160 Descending Oakland Center
06:52PM 36.6167 -121.8667 329° Northwest 413 475 20,100 -1,440 Descending Northern Cal TRACON
06:53PM 36.7167 -121.9500 326° Northwest 401 461 19,100 -1,800 Descending Northern Cal TRACON
06:54PM 36.8333 -121.9833 347° North 408 470 16,500 -2,640 Descending Northern Cal TRACON
06:55PM 36.9333 -122.0167 345° North 399 459 13,900 -1,920 Descending Northern Cal TRACON
06:56PM 37.0494 -122.0453 349° North 335 386 12,000 -960 Descending Oakland Center
06:57PM 37.1344 -122.0664 349° North 313 360 11,700 -1,200 Descending Oakland Center
06:58PM 37.1861 -122.1500 308° West 263 303 9,600 -1,860 Descending Oakland Center
06:59PM 37.2217 -122.2258 301° West 255 293 8,000 -840 Descending Oakland Center
07:00PM 37.2575 -122.3008 301° West 253 291 8,000  Level Oakland Center
07:01PM 37.2936 -122.3772 301° West 254 292 8,000  Level Oakland Center
07:02PM 37.3283 -122.4531 300° West 252 290 8,000  Level Oakland Center
07:03PM 37.3731 -122.5211 310° West 268 308 8,000 -600 Level Oakland Center
07:04PM 37.4092 -122.4664 50° Northeast 242 278 6,800 -1,020 Descending Oakland Center
07:05PM 37.3944 -122.3900 104° East 231 266 6,000 -420 Descending Oakland Center
07:06PM 37.3981 -122.3122 87° East 229 264 6,000 -60 Level Oakland Center
07:07PM 37.4200 -122.2225 73° East 232 267 5,900 -420 Descending Oakland Center
07:08PM 37.4750 -122.1758 34° Northeast 237 273 5,200 -840 Descending Oakland Center
07:09PM 37.5269 -122.1647 10° North 215 247 4,300 -1,140 Descending Oakland Center
07:10PM 37.5533 -122.2194 301° West 196 226 2,900 -1,320 Descending Oakland Center
07:11PM 37.5764 -122.2725 299° West 183 211 1,600 -1,080 Descending Oakland Center
07:12PM 37.5947 -122.3178 297° West 164 189 800 -660 Descending Oakland Center
07:13PM 37.6136 -122.3603 299° West 148 170 300 -540 Descending Oakland Center